Time;durP1;ratioP1;P1;durP2;ratioP2;P2;SDS_P1;SDS_P2;PMS_P1;PMS_P2;Temp;Humidity;BMP_temperature;BMP_pressure;BME280_temperature;BME280_humidity;BME280_pressure;Samples;Min_cycle;Max_cycle;Signal;HPM_P1;HPM_P2
2022/07/28 00:01:09;;;;;;;;;;;;;;;20.68;73.18;98811.81;4715897;30;19981;-82
2022/07/28 00:03:37;;;;;;;;;;;;;;;20.63;73.44;98820.19;4717074;30;20052;-82
2022/07/28 00:06:04;;;;;;;;;;;;;;;20.62;73.68;98813.09;4716011;30;19930;-82
2022/07/28 00:08:31;;;;;;;;;;;;;;;20.64;74.03;98818.28;4716896;30;19966;-82
2022/07/28 00:10:58;;;;;;;;;;;;;;;20.66;73.91;98822.31;4717114;30;19930;-82
2022/07/28 00:13:25;;;;;;;;;;;;;;;20.68;74.10;98822.78;4716805;30;19949;-82
2022/07/28 00:15:52;;;;;;;;;;;;;;;20.65;74.00;98819.88;4716726;30;19931;-81
2022/07/28 00:18:19;;;;;;;;;;;;;;;20.63;73.93;98822.91;4716285;30;19947;-83
2022/07/28 00:20:45;;;;;;;;;;;;;;;20.62;74.10;98820.50;4716165;30;19930;-81
2022/07/28 00:23:12;;;;;;;;;;;;;;;20.57;74.55;98824.19;4716827;30;19934;-82
2022/07/28 00:25:39;;;;;;;;;;;;;;;20.55;74.75;98829.19;4715351;30;19930;-84
2022/07/28 00:28:06;;;;;;;;;;;;;;;20.53;75.16;98829.47;4716834;30;20439;-81
2022/07/28 00:30:33;;;;;;;;;;;;;;;20.51;75.43;98836.41;4716602;30;19930;-81
2022/07/28 00:33:00;;;;;;;;;;;;;;;20.52;75.46;98832.53;4715940;30;19998;-82
2022/07/28 00:35:30;;;;;;;;;;;;;;;20.51;75.38;98831.72;4718157;30;19937;-81
2022/07/28 00:37:58;;;;;;;;;;;;;;;20.49;75.81;98825.75;4719516;30;19964;-81
2022/07/28 00:43:16;;;;;;;;;;;;;;;20.43;75.99;98837.94;5152624;27;19934;-82
2022/07/28 00:45:43;;;;;;;;;;;;;;;20.40;76.38;98833.09;5135332;27;20441;-82
2022/07/28 00:48:10;;;;;;;;;;;;;;;20.35;76.58;98839.50;5171371;27;20285;-82
2022/07/28 00:50:38;;;;;;;;;;;;;;;20.35;76.55;98834.03;5170957;27;19927;-82
2022/07/28 00:53:05;;;;;;;;;;;;;;;20.31;76.65;98832.25;5171213;27;19938;-82
2022/07/28 00:55:34;;;;;;;;;;;;;;;20.31;76.69;98826.78;5167123;27;19955;-81
2022/07/28 00:58:21;;;;;;;;;;;;;;;20.29;76.56;98826.28;5155209;27;19935;-82
2022/07/28 01:00:48;;;;;;;;;;;;;;;20.27;76.61;98831.25;5168297;27;19934;-83
2022/07/28 01:03:16;;;;;;;;;;;;;;;20.24;77.26;98821.72;5169369;27;20346;-82
2022/07/28 01:05:56;;;;;;;;;;;;;;;20.20;77.09;98823.44;5171013;27;20357;-83
2022/07/28 01:08:47;;;;;;;;;;;;;;;20.19;77.13;98821.84;5170798;27;19931;-81
2022/07/28 01:11:25;;;;;;;;;;;;;;;20.19;77.43;98819.09;5152719;27;19927;-83
2022/07/28 01:14:02;;;;;;;;;;;;;;;20.14;77.74;98816.50;5135543;27;19931;-83
2022/07/28 01:16:29;;;;;;;;;;;;;;;20.12;77.65;98818.72;5152823;27;20030;-83
2022/07/28 01:18:58;;;;;;;;;;;;;;;20.10;77.86;98815.50;5152450;27;19927;-82
2022/07/28 01:21:28;;;;;;;;;;;;;;;20.09;77.89;98814.69;5170962;27;19979;-82
2022/07/28 01:24:14;;;;;;;;;;;;;;;20.06;78.26;98814.50;5152580;27;19938;-82
2022/07/28 01:26:42;;;;;;;;;;;;;;;20.04;78.42;98817.56;5170752;27;19926;-82
2022/07/28 01:29:19;;;;;;;;;;;;;;;20.05;78.29;98815.63;5135112;27;19927;-82
2022/07/28 01:31:58;;;;;;;;;;;;;;;20.03;78.17;98812.41;5152125;27;19927;-82
2022/07/28 01:34:28;;;;;;;;;;;;;;;20.03;78.28;98815.16;5152332;27;19935;-81
2022/07/28 01:37:03;;;;;;;;;;;;;;;20.03;78.38;98810.47;5152312;27;19966;-81
2022/07/28 01:39:34;;;;;;;;;;;;;;;20.03;78.42;98809.66;5170167;27;20455;-81
2022/07/28 01:42:07;;;;;;;;;;;;;;;20.01;78.37;98807.22;5134950;27;19952;-82
2022/07/28 01:44:35;;;;;;;;;;;;;;;20.01;78.55;98812.72;5135429;27;19954;-82
2022/07/28 01:47:06;;;;;;;;;;;;;;;20.01;78.40;98812.72;5170783;27;20648;-81
2022/07/28 01:49:33;;;;;;;;;;;;;;;20.00;78.58;98805.59;5135106;27;19931;-82
2022/07/28 01:52:03;;;;;;;;;;;;;;;20.02;78.40;98808.03;5156580;27;19927;-81
2022/07/28 01:54:33;;;;;;;;;;;;;;;20.03;78.51;98806.94;5138260;27;19926;-82
2022/07/28 01:57:01;;;;;;;;;;;;;;;20.04;78.54;98809.34;5121279;27;19934;-82
2022/07/28 01:59:28;;;;;;;;;;;;;;;20.02;78.70;98814.31;5137996;27;19927;-82
2022/07/28 02:01:58;;;;;;;;;;;;;;;20.02;78.61;98810.78;5156248;27;20029;-80
2022/07/28 02:04:25;;;;;;;;;;;;;;;20.04;78.51;98805.78;5121942;27;19938;-82
2022/07/28 02:06:53;;;;;;;;;;;;;;;20.05;78.78;98812.88;5159790;27;20304;-81
2022/07/28 02:09:20;;;;;;;;;;;;;;;20.04;78.61;98816.75;5123409;27;19927;-82
2022/07/28 02:11:48;;;;;;;;;;;;;;;20.07;78.49;98810.66;5122879;27;19927;-81
2022/07/28 02:14:17;;;;;;;;;;;;;;;20.14;78.37;98813.75;5120304;27;19931;-82
2022/07/28 02:16:47;;;;;;;;;;;;;;;20.18;78.17;98811.19;5155644;27;19934;-81
2022/07/28 02:19:14;;;;;;;;;;;;;;;20.22;78.45;98813.00;5155791;27;19927;-82
2022/07/28 02:21:41;;;;;;;;;;;;;;;20.24;78.43;98818.19;5137219;27;19927;-82
2022/07/28 02:24:11;;;;;;;;;;;;;;;20.27;78.24;98814.81;5137550;27;19931;-81
2022/07/28 02:26:40;;;;;;;;;;;;;;;20.31;78.13;98815.81;5155356;27;19934;-81
2022/07/28 02:29:07;;;;;;;;;;;;;;;20.31;78.00;98821.28;5137126;27;19987;-83
2022/07/28 02:31:54;;;;;;;;;;;;;;;20.33;78.11;98819.84;5139708;27;19927;-81
2022/07/28 02:34:21;;;;;;;;;;;;;;;20.38;77.86;98827.09;5137195;27;19937;-82
2022/07/28 02:36:56;;;;;;;;;;;;;;;20.43;77.92;98829.72;5155020;27;20393;-82
2022/07/28 02:39:30;;;;;;;;;;;;;;;20.50;77.74;98821.06;5155168;27;19927;-81
2022/07/28 02:42:23;;;;;;;;;;;;;;;20.56;77.74;98822.59;5119149;27;20030;-84
2022/07/28 02:44:54;;;;;;;;;;;;;;;20.63;77.50;98822.13;5136798;27;19990;-84
2022/07/28 02:47:21;;;;;;;;;;;;;;;20.65;77.55;98825.34;5126090;27;19938;-83
2022/07/28 02:49:51;;;;;;;;;;;;;;;20.66;77.54;98827.81;5132398;27;19934;-84
2022/07/28 02:52:22;;;;;;;;;;;;;;;20.67;77.48;98826.66;5124430;27;20390;-83
2022/07/28 02:54:49;;;;;;;;;;;;;;;20.74;77.27;98823.47;5122433;27;19980;-83
2022/07/28 02:57:17;;;;;;;;;;;;;;;20.82;77.21;98821.91;5106458;27;20012;-83
2022/07/28 02:59:44;;;;;;;;;;;;;;;20.88;76.78;98826.09;5144158;27;19928;-83
2022/07/28 03:02:11;;;;;;;;;;;;;;;20.92;76.83;98835.31;5132587;27;19927;-84
2022/07/28 03:04:57;;;;;;;;;;;;;;;20.98;76.61;98832.09;5126638;27;20346;-84
2022/07/28 03:07:27;;;;;;;;;;;;;;;21.08;76.13;98841.19;5116629;27;20038;-84
2022/07/28 03:09:55;;;;;;;;;;;;;;;21.14;76.35;98834.41;5124097;27;19949;-84
2022/07/28 03:12:39;;;;;;;;;;;;;;;21.16;76.10;98841.19;5133789;27;19924;-85
2022/07/28 03:15:07;;;;;;;;;;;;;;;21.15;76.23;98834.09;5121342;27;19927;-85
2022/07/28 03:17:34;;;;;;;;;;;;;;;21.11;76.62;98848.78;5121714;27;20405;-84
2022/07/28 03:20:01;;;;;;;;;;;;;;;21.11;76.66;98849.56;5123665;27;20415;-83
2022/07/28 03:22:28;;;;;;;;;;;;;;;21.14;76.62;98851.69;5127771;27;20385;-84
2022/07/28 03:24:56;;;;;;;;;;;;;;;21.24;76.44;98858.81;5117972;27;20347;-85
2022/07/28 03:27:30;;;;;;;;;;;;;;;21.30;76.61;98851.25;5139785;27;20316;-85
2022/07/28 03:29:58;;;;;;;;;;;;;;;21.39;76.40;98844.66;5140935;27;20301;-85
2022/07/28 03:32:31;;;;;;;;;;;;;;;21.53;76.01;98843.75;5124608;27;19927;-85
2022/07/28 03:34:58;;;;;;;;;;;;;;;21.56;76.17;98854.06;5116525;27;19934;-85
2022/07/28 03:37:37;;;;;;;;;;;;;;;21.63;75.67;98844.25;5133235;27;19984;-82
2022/07/28 03:40:05;;;;;;;;;;;;;;;21.80;75.38;98843.44;5115533;27;19935;-84
2022/07/28 03:42:32;;;;;;;;;;;;;;;21.95;74.91;98850.41;5133135;27;19973;-85
2022/07/28 03:44:59;;;;;;;;;;;;;;;22.14;73.80;98846.50;5132849;27;19927;-81
2022/07/28 03:47:26;;;;;;;;;;;;;;;22.21;73.41;98844.91;5115021;27;19937;-81
2022/07/28 03:49:53;;;;;;;;;;;;;;;22.12;73.56;98844.06;5132485;27;20283;-85
2022/07/28 03:52:20;;;;;;;;;;;;;;;22.11;73.50;98841.66;5133404;27;19972;-85
2022/07/28 03:54:51;;;;;;;;;;;;;;;22.05;73.26;98844.56;5115640;27;20022;-85
2022/07/28 03:57:18;;;;;;;;;;;;;;;21.98;73.59;98835.22;5133051;27;19934;-84
2022/07/28 03:59:45;;;;;;;;;;;;;;;21.91;73.65;98843.13;5132537;27;19927;-84
2022/07/28 04:02:12;;;;;;;;;;;;;;;21.88;73.58;98852.00;5131209;27;19927;-82
2022/07/28 04:04:39;;;;;;;;;;;;;;;21.91;73.29;98843.13;5114334;27;20378;-83
2022/07/28 04:07:06;;;;;;;;;;;;;;;21.84;73.36;98849.09;5122510;27;19938;-84
2022/07/28 04:09:33;;;;;;;;;;;;;;;21.79;73.32;98854.75;5121039;27;19999;-82
2022/07/28 04:12:00;;;;;;;;;;;;;;;21.73;73.15;98858.78;5128818;27;19931;-84
2022/07/28 04:14:27;;;;;;;;;;;;;;;21.65;73.54;98868.63;5128354;27;20355;-82
2022/07/28 04:16:54;;;;;;;;;;;;;;;21.59;73.89;98864.41;5109567;27;20384;-84
2022/07/28 04:19:22;;;;;;;;;;;;;;;21.64;74.05;98859.56;5128580;27;19927;-84
2022/07/28 04:21:50;;;;;;;;;;;;;;;21.75;73.45;98857.34;5128548;27;19935;-85
2022/07/28 04:24:19;;;;;;;;;;;;;;;21.76;73.22;98858.16;5093603;27;19953;-83
2022/07/28 04:26:46;;;;;;;;;;;;;;;21.70;73.50;98862.16;5129915;27;19935;-83
2022/07/28 04:29:13;;;;;;;;;;;;;;;21.68;73.34;98864.44;5132321;27;19976;-83
2022/07/28 04:31:49;;;;;;;;;;;;;;;21.83;73.35;98863.97;5131931;27;19927;-83
2022/07/28 04:34:16;;;;;;;;;;;;;;;21.95;72.61;98861.38;5132433;27;20357;-83
2022/07/28 04:36:43;;;;;;;;;;;;;;;21.94;73.01;98857.00;5096786;28;19931;-83
2022/07/28 04:39:10;;;;;;;;;;;;;;;22.03;72.87;98857.81;5113533;28;19966;-84
2022/07/28 04:41:45;;;;;;;;;;;;;;;22.15;72.44;98859.91;5136060;27;19927;-82
2022/07/28 04:44:12;;;;;;;;;;;;;;;22.33;72.37;98860.72;5141591;27;19927;-83
2022/07/28 04:46:39;;;;;;;;;;;;;;;22.43;71.65;98860.41;5152196;27;19934;-83
2022/07/28 04:49:06;;;;;;;;;;;;;;;22.56;71.01;98861.34;5133473;27;19931;-83
2022/07/28 04:51:34;;;;;;;;;;;;;;;22.77;70.56;98855.94;5131914;28;20404;-83
2022/07/28 04:54:01;;;;;;;;;;;;;;;22.98;69.90;98855.25;5116269;27;19931;-81
2022/07/28 04:56:28;;;;;;;;;;;;;;;23.09;69.42;98859.22;5115200;27;20434;-82
2022/07/28 04:58:55;;;;;;;;;;;;;;;23.18;68.82;98856.44;5102882;28;19928;-82
2022/07/28 05:01:22;;;;;;;;;;;;;;;23.33;68.77;98859.44;5136771;27;19927;-82
2022/07/28 05:03:52;;;;;;;;;;;;;;;23.44;68.43;98853.53;4825273;27;10000394;-83
2022/07/28 05:06:19;;;;;;;;;;;;;;;23.44;67.18;98857.09;5134152;27;19928;-83
2022/07/28 05:08:46;;;;;;;;;;;;;;;23.59;66.91;98850.19;5122577;27;19985;-81
2022/07/28 05:11:12;;;;;;;;;;;;;;;23.69;66.53;98863.56;5105667;27;20035;-83
2022/07/28 05:13:39;;;;;;;;;;;;;;;23.71;66.52;98863.25;5110003;28;19927;-83
2022/07/28 05:16:07;;;;;;;;;;;;;;;23.81;66.33;98873.09;5130550;27;19931;-84
2022/07/28 05:18:34;;;;;;;;;;;;;;;23.79;65.93;98865.16;5133422;27;19928;-82
2022/07/28 05:21:02;;;;;;;;;;;;;;;23.66;65.91;98861.50;5138526;27;19927;-81
2022/07/28 05:23:29;;;;;;;;;;;;;;;23.69;65.97;98863.56;5136103;27;20309;-79
2022/07/28 05:25:56;;;;;;;;;;;;;;;23.82;65.71;98875.50;5104521;28;20804;-81
2022/07/28 05:28:26;;;;;;;;;;;;;;;23.86;65.36;98862.66;5108259;28;19931;-80
2022/07/28 05:30:53;;;;;;;;;;;;;;;23.99;64.79;98869.06;5108525;28;20357;-81
2022/07/28 05:33:21;;;;;;;;;;;;;;;24.14;64.91;98871.19;5075211;28;20084;-82
2022/07/28 05:35:53;;;;;;;;;;;;;;;24.27;64.67;98862.97;5089739;28;19934;-80
2022/07/28 05:38:20;;;;;;;;;;;;;;;24.40;63.91;98861.88;5091716;28;20017;-81
2022/07/28 05:40:48;;;;;;;;;;;;;;;24.54;63.95;98867.13;5107902;28;19927;-82
2022/07/28 05:43:15;;;;;;;;;;;;;;;24.57;63.56;98878.28;5091721;28;19928;-81
2022/07/28 05:45:42;;;;;;;;;;;;;;;24.47;61.35;98877.91;5073216;28;20163;-80
2022/07/28 05:48:09;;;;;;;;;;;;;;;24.50;61.36;98877.22;5106828;28;19976;-81
2022/07/28 05:50:50;;;;;;;;;;;;;;;24.69;60.69;98869.22;5087686;28;19989;-82
2022/07/28 05:53:18;;;;;;;;;;;;;;;25.06;60.27;98872.81;5087492;28;19928;-81
2022/07/28 05:55:45;;;;;;;;;;;;;;;25.34;59.54;98869.41;5087813;28;19927;-82
2022/07/28 05:58:30;;;;;;;;;;;;;;;25.66;58.19;98869.63;5111578;27;19935;-81
2022/07/28 06:01:00;;;;;;;;;;;;;;;25.97;57.61;98870.94;5121559;27;20341;-81
2022/07/28 06:03:29;;;;;;;;;;;;;;;26.11;56.96;98868.63;5122860;27;19967;-82
2022/07/28 06:05:56;;;;;;;;;;;;;;;26.16;56.83;98868.38;5128220;27;20345;-81
2022/07/28 06:08:41;;;;;;;;;;;;;;;26.14;56.26;98871.47;5116663;27;20355;-80
2022/07/28 06:11:08;;;;;;;;;;;;;;;26.11;56.64;98869.41;5127878;27;20011;-82
2022/07/28 06:13:36;;;;;;;;;;;;;;;26.05;56.24;98878.28;5123026;27;19934;-81
2022/07/28 06:16:03;;;;;;;;;;;;;;;26.01;56.40;98880.16;5106371;28;19935;-81
2022/07/28 06:18:36;;;;;;;;;;;;;;;25.97;56.74;98887.53;5122594;27;20022;-82
2022/07/28 06:21:03;;;;;;;;;;;;;;;25.82;57.13;98880.75;5114134;27;19962;-81
2022/07/28 06:23:31;;;;;;;;;;;;;;;25.70;57.11;98870.50;5118240;27;20431;-82
2022/07/28 06:25:58;;;;;;;;;;;;;;;25.68;57.88;98873.66;5094593;28;20031;-82
2022/07/28 06:28:25;;;;;;;;;;;;;;;25.83;57.63;98866.59;5116776;27;20322;-81
2022/07/28 06:30:53;;;;;;;;;;;;;;;26.04;57.19;98871.16;5116055;27;19932;-83
2022/07/28 06:33:23;;;;;;;;;;;;;;;25.94;56.77;98864.16;5113959;27;19934;-80
2022/07/28 06:35:50;;;;;;;;;;;;;;;25.93;57.27;98866.13;5121147;27;20026;-82
2022/07/28 06:38:19;;;;;;;;;;;;;;;25.73;57.97;98865.13;5114874;27;20415;-80
2022/07/28 06:40:46;;;;;;;;;;;;;;;25.69;57.46;98868.91;5120809;27;19971;-82
2022/07/28 06:43:14;;;;;;;;;;;;;;;25.66;57.44;98875.16;5117101;27;19935;-82
2022/07/28 06:45:43;;;;;;;;;;;;;;;25.41;57.70;98860.56;5083416;28;19973;-83
2022/07/28 06:48:25;;;;;;;;;;;;;;;25.44;58.56;98862.63;5115108;27;19939;-82
2022/07/28 06:50:58;;;;;;;;;;;;;;;25.80;57.60;98860.94;5120305;27;19932;-81
2022/07/28 06:53:25;;;;;;;;;;;;;;;26.10;56.78;98864.22;5112578;27;19997;-81
2022/07/28 06:55:59;;;;;;;;;;;;;;;26.26;56.16;98862.31;5121771;27;19988;-81
2022/07/28 06:58:26;;;;;;;;;;;;;;;26.45;55.69;98867.19;5112993;27;20037;-79
2022/07/28 07:00:53;;;;;;;;;;;;;;;26.66;55.96;98860.63;5115955;27;20077;-81
2022/07/28 07:03:20;;;;;;;;;;;;;;;26.77;55.63;98859.75;5114752;27;20313;-82
2022/07/28 07:05:49;;;;;;;;;;;;;;;26.99;55.48;98860.28;5115462;27;19932;-82
2022/07/28 07:08:19;;;;;;;;;;;;;;;27.16;55.32;98859.94;5114316;27;20011;-81
2022/07/28 07:10:46;;;;;;;;;;;;;;;27.26;54.36;98853.06;5117844;27;19974;-82
2022/07/28 07:13:14;;;;;;;;;;;;;;;27.25;54.50;98857.03;5092240;27;20393;-82
2022/07/28 07:15:41;;;;;;;;;;;;;;;27.18;54.73;98865.16;5119999;27;19935;-82
2022/07/28 07:18:08;;;;;;;;;;;;;;;27.31;54.88;98863.88;5120345;27;20504;-82
2022/07/28 07:20:38;;;;;;;;;;;;;;;27.48;54.17;98870.22;5112678;27;19934;-82
2022/07/28 07:23:05;;;;;;;;;;;;;;;27.69;53.57;98864.34;5108921;27;19928;-87
2022/07/28 07:25:34;;;;;;;;;;;;;;;27.67;52.58;98857.22;5121935;27;19962;-85
2022/07/28 07:28:01;;;;;;;;;;;;;;;27.67;52.84;98868.28;5116080;27;19927;-84
2022/07/28 07:30:28;;;;;;;;;;;;;;;27.72;52.46;98858.88;5112675;27;19928;-84
2022/07/28 07:32:55;;;;;;;;;;;;;;;27.83;52.51;98851.63;5125398;27;19931;-82
2022/07/28 07:35:22;;;;;;;;;;;;;;;27.94;52.76;98851.84;5114806;27;19972;-81
2022/07/28 07:37:56;;;;;;;;;;;;;;;27.90;51.72;98852.94;5106649;27;20022;-82
2022/07/28 07:40:23;;;;;;;;;;;;;;;27.76;52.04;98853.41;5110691;27;20575;-81
2022/07/28 07:42:50;;;;;;;;;;;;;;;27.75;52.10;98857.34;5150137;27;19934;-82
2022/07/28 07:45:17;;;;;;;;;;;;;;;27.92;51.96;98864.47;5122829;27;19931;-81
2022/07/28 07:47:44;;;;;;;;;;;;;;;28.05;52.10;98866.72;5128893;27;19931;-81
2022/07/28 07:50:11;;;;;;;;;;;;;;;28.40;51.48;98862.28;5133684;27;19971;-82
2022/07/28 07:52:38;;;;;;;;;;;;;;;29.00;50.28;98864.56;5132907;27;19928;-81
2022/07/28 07:55:05;;;;;;;;;;;;;;;29.32;48.16;98865.94;5103161;27;20401;-81
2022/07/28 07:57:32;;;;;;;;;;;;;;;28.91;48.67;98867.59;5136375;27;19980;-79
2022/07/28 07:59:59;;;;;;;;;;;;;;;28.69;49.99;98877.53;5137227;27;19967;-80
2022/07/28 08:02:26;;;;;;;;;;;;;;;28.70;49.40;98876.34;5131579;27;19934;-82
2022/07/28 08:04:54;;;;;;;;;;;;;;;28.81;48.97;98865.44;5135267;27;19979;-81
2022/07/28 08:07:21;;;;;;;;;;;;;;;28.79;49.21;98862.22;5137687;27;20539;-81
2022/07/28 08:09:55;;;;;;;;;;;;;;;28.82;48.35;98880.94;5147979;27;20039;-83
2022/07/28 08:12:22;;;;;;;;;;;;;;;29.14;47.62;98865.66;5137289;27;19938;-79
2022/07/28 08:14:51;;;;;;;;;;;;;;;29.22;48.47;98860.19;5137142;27;19936;-81
2022/07/28 08:17:22;;;;;;;;;;;;;;;29.12;48.27;98847.75;5129326;27;20530;-85
2022/07/28 08:19:52;;;;;;;;;;;;;;;29.18;47.51;98849.03;5122617;27;19927;-83
2022/07/28 08:22:19;;;;;;;;;;;;;;;29.14;47.29;98859.25;5115512;27;19931;-81
2022/07/28 08:24:46;;;;;;;;;;;;;;;28.96;48.27;98853.38;5140098;27;20050;-81
2022/07/28 08:27:13;;;;;;;;;;;;;;;28.73;48.94;98839.50;5128832;27;20413;-81
2022/07/28 08:29:40;;;;;;;;;;;;;;;28.87;48.45;98848.09;5127936;27;19967;-80
2022/07/28 08:32:07;;;;;;;;;;;;;;;28.80;49.75;98842.41;5134237;27;20570;-81
2022/07/28 08:34:34;;;;;;;;;;;;;;;28.40;50.45;98842.84;5120350;27;20021;-82
2022/07/28 08:37:03;;;;;;;;;;;;;;;28.17;50.98;98834.47;5116936;27;19927;-80
2022/07/28 08:39:30;;;;;;;;;;;;;;;27.86;52.28;98825.16;5139972;27;19928;-82
2022/07/28 08:42:02;;;;;;;;;;;;;;;28.10;52.00;98833.16;5119096;28;19938;-82
2022/07/28 08:44:36;;;;;;;;;;;;;;;28.84;51.04;98817.47;5102109;28;20049;-81
2022/07/28 08:47:10;;;;;;;;;;;;;;;29.18;50.01;98815.69;5115685;27;19962;-80
2022/07/28 08:49:40;;;;;;;;;;;;;;;29.22;50.19;98816.53;5138796;27;19927;-81
2022/07/28 08:52:08;;;;;;;;;;;;;;;29.46;49.99;98800.59;5119163;27;20495;-81
2022/07/28 08:54:42;;;;;;;;;;;;;;;29.92;48.73;98809.56;5138694;27;19946;-81
2022/07/28 08:57:15;;;;;;;;;;;;;;;30.57;46.88;98783.25;5109712;27;19927;-81
2022/07/28 08:59:42;;;;;;;;;;;;;;;30.36;45.91;98817.25;5130540;27;19998;-81
2022/07/28 09:02:28;;;;;;;;;;;;;;;30.47;44.38;98806.22;5125655;27;19927;-82
2022/07/28 09:04:55;;;;;;;;;;;;;;;30.57;44.64;98827.81;5124664;27;20508;-80
2022/07/28 09:07:22;;;;;;;;;;;;;;;30.92;44.00;98803.47;5123514;27;19939;-80
2022/07/28 09:09:49;;;;;;;;;;;;;;;30.91;43.47;98810.22;5142559;27;19990;-81
2022/07/28 09:12:22;;;;;;;;;;;;;;;31.51;42.73;98796.72;5132619;27;20026;-81
2022/07/28 09:14:53;;;;;;;;;;;;;;;31.79;42.42;98812.00;5134716;27;20247;-80
2022/07/28 09:17:20;;;;;;;;;;;;;;;31.87;42.40;98812.84;5138958;27;19927;-81
2022/07/28 09:19:47;;;;;;;;;;;;;;;31.57;43.04;98799.16;5132347;27;20426;-80
2022/07/28 09:22:14;;;;;;;;;;;;;;;31.98;42.28;98796.16;5114119;27;19927;-80
2022/07/28 09:24:43;;;;;;;;;;;;;;;32.28;41.34;98785.47;5133486;27;19934;-81
2022/07/28 09:27:12;;;;;;;;;;;;;;;32.70;40.76;98797.94;5125940;27;19934;-80
2022/07/28 09:29:40;;;;;;;;;;;;;;;33.23;39.79;98797.13;5133990;27;20317;-82
2022/07/28 09:32:07;;;;;;;;;;;;;;;33.35;39.66;98793.13;5152473;27;19927;-81
2022/07/28 09:34:40;;;;;;;;;;;;;;;33.39;39.77;98793.09;5144801;27;19981;-81
2022/07/28 09:37:21;;;;;;;;;;;;;;;32.34;41.12;98791.50;5143673;27;19984;-81
2022/07/28 09:39:56;;;;;;;;;;;;;;;30.83;44.00;98789.88;5131782;27;19928;-81
2022/07/28 09:42:24;;;;;;;;;;;;;;;30.05;44.72;98789.84;5131666;27;19949;-78
2022/07/28 09:45:02;;;;;;;;;;;;;;;29.65;46.42;98789.38;5119253;27;19930;-81
2022/07/28 09:47:55;;;;;;;;;;;;;;;28.79;47.83;98812.22;5124266;27;19973;-81
2022/07/28 09:50:29;;;;;;;;;;;;;;;28.16;46.13;98819.81;5120607;27;19928;-80
2022/07/28 09:52:56;;;;;;;;;;;;;;;27.90;48.27;98803.81;5137889;27;20472;-80
2022/07/28 09:55:22;;;;;;;;;;;;;;;28.16;48.04;98817.03;5122712;27;19966;-81
2022/07/28 09:57:49;;;;;;;;;;;;;;;27.96;45.00;98813.47;5140453;27;19927;-81
2022/07/28 10:00:24;;;;;;;;;;;;;;;27.17;45.71;98811.69;5113670;27;20417;-79
2022/07/28 10:02:53;;;;;;;;;;;;;;;26.66;46.59;98806.09;5131638;27;20359;-80
2022/07/28 10:05:32;;;;;;;;;;;;;;;26.46;44.91;98796.03;5143497;27;19978;-79
2022/07/28 10:07:59;;;;;;;;;;;;;;;26.49;45.64;98798.91;5125584;27;19927;-78
2022/07/28 10:10:26;;;;;;;;;;;;;;;26.53;45.53;98788.75;5118467;27;19934;-81
2022/07/28 10:12:52;;;;;;;;;;;;;;;26.58;45.84;98788.50;5134563;27;19928;-80
2022/07/28 10:18:18;;;;;;;;;;;;;;;26.51;46.41;98802.13;5137641;27;20398;-80
2022/07/28 10:20:45;;;;;;;;;;;;;;;26.48;47.19;98807.56;5134376;27;19927;-80
2022/07/28 10:23:15;;;;;;;;;;;;;;;26.70;47.08;98820.03;5134829;27;20365;-81
2022/07/28 10:25:43;;;;;;;;;;;;;;;26.86;47.23;98825.56;5134784;27;20089;-79
2022/07/28 10:28:10;;;;;;;;;;;;;;;26.94;47.19;98832.88;5117913;27;19997;-80
2022/07/28 10:30:38;;;;;;;;;;;;;;;26.89;47.18;98830.38;5120120;27;19978;-80
2022/07/28 10:33:12;;;;;;;;;;;;;;;27.19;46.82;98839.88;5126655;27;19931;-79
2022/07/28 10:35:39;;;;;;;;;;;;;;;27.91;45.57;98833.19;5142631;27;19928;-80
2022/07/28 10:38:20;;;;;;;;;;;;;;;28.52;44.15;98835.19;5128393;27;20394;-80
2022/07/28 10:40:47;;;;;;;;;;;;;;;28.52;43.00;98840.72;5118866;27;20026;-78
2022/07/28 10:43:14;;;;;;;;;;;;;;;28.67;42.63;98833.47;5145681;27;19974;-79
2022/07/28 10:45:41;;;;;;;;;;;;;;;28.95;41.92;98835.94;5155449;27;20345;-79
2022/07/28 10:48:28;;;;;;;;;;;;;;;29.24;40.84;98830.84;5130031;27;19979;-78
2022/07/28 10:50:55;;;;;;;;;;;;;;;29.00;40.48;98832.03;5140901;27;19971;-78
2022/07/28 10:53:26;;;;;;;;;;;;;;;28.62;41.64;98836.56;5104864;27;19943;-78
2022/07/28 10:56:02;;;;;;;;;;;;;;;28.30;42.98;98850.59;5137960;27;19949;-79
2022/07/28 10:58:49;;;;;;;;;;;;;;;28.26;42.88;98857.25;5116424;27;19972;-78
2022/07/28 11:01:32;;;;;;;;;;;;;;;28.42;42.63;98849.63;5139762;27;19935;-78
2022/07/28 11:04:38;;;;;;;;;;;;;;;30.59;40.04;98844.16;5117656;27;19927;-78
2022/07/28 11:07:12;;;;;;;;;;;;;;;31.63;38.64;98842.22;5122975;27;20034;-79
2022/07/28 11:09:41;;;;;;;;;;;;;;;31.63;38.66;98845.00;5142647;27;19927;-78
2022/07/28 11:12:08;;;;;;;;;;;;;;;30.52;40.68;98849.63;5133701;27;20494;-79
2022/07/28 11:14:36;;;;;;;;;;;;;;;29.44;42.42;98867.69;5133998;27;19928;-78
2022/07/28 11:17:05;;;;;;;;;;;;;;;28.23;44.99;98886.53;5135425;27;19972;-78
2022/07/28 11:19:36;;;;;;;;;;;;;;;27.41;45.73;98871.63;5125539;27;19934;-79
2022/07/28 11:22:23;;;;;;;;;;;;;;;26.85;46.92;98871.03;5154240;27;20433;-78
2022/07/28 11:24:59;;;;;;;;;;;;;;;26.49;47.49;98875.59;5129849;27;19927;-78
2022/07/28 11:27:48;;;;;;;;;;;;;;;25.89;48.43;98875.47;5138996;27;20419;-79
2022/07/28 11:30:24;;;;;;;;;;;;;;;25.57;49.53;98874.47;5144807;27;19930;-79
2022/07/28 11:32:57;;;;;;;;;;;;;;;25.34;49.64;98888.75;5143471;27;20369;-80
2022/07/28 11:35:27;;;;;;;;;;;;;;;25.07;50.07;98896.53;5133449;27;19988;-77
2022/07/28 11:38:14;;;;;;;;;;;;;;;24.76;51.50;98890.72;5141493;27;19928;-79
2022/07/28 11:40:44;;;;;;;;;;;;;;;24.56;51.40;98890.47;5141893;27;19934;-79
2022/07/28 11:43:25;;;;;;;;;;;;;;;24.16;53.09;98884.66;5117947;27;19934;-77
2022/07/28 11:46:07;;;;;;;;;;;;;;;23.82;55.64;98880.22;5140804;27;19927;-78
2022/07/28 11:48:41;;;;;;;;;;;;;;;23.53;57.71;98865.31;5129418;27;19934;-79
2022/07/28 11:51:16;;;;;;;;;;;;;;;23.31;59.07;98817.66;5144170;27;19934;-78
2022/07/28 11:53:54;;;;;;;;;;;;;;;23.66;58.09;98822.94;5133498;27;19934;-79
2022/07/28 11:56:22;;;;;;;;;;;;;;;23.97;58.14;98835.50;5119134;27;19938;-79
2022/07/28 11:59:05;;;;;;;;;;;;;;;24.05;58.42;98820.84;5114037;27;20286;-78
2022/07/28 12:01:33;;;;;;;;;;;;;;;24.22;57.51;98814.34;5097806;27;19928;-79
2022/07/28 12:04:14;;;;;;;;;;;;;;;24.38;57.35;98825.53;5137002;27;20268;-79
2022/07/28 12:06:45;;;;;;;;;;;;;;;24.62;55.92;98824.84;5126112;27;19927;-78
2022/07/28 12:09:17;;;;;;;;;;;;;;;24.48;55.76;98841.69;5115723;27;19928;-78
2022/07/28 12:11:54;;;;;;;;;;;;;;;24.22;56.00;98844.69;5137507;27;19934;-80
2022/07/28 12:14:27;;;;;;;;;;;;;;;23.93;56.72;98859.38;5115297;27;19927;-79
2022/07/28 12:16:54;;;;;;;;;;;;;;;23.99;57.67;98858.03;5132154;27;19928;-79
2022/07/28 12:19:23;;;;;;;;;;;;;;;25.51;56.17;98849.84;5135555;27;20309;-79
2022/07/28 12:21:58;;;;;;;;;;;;;;;27.42;52.15;98851.09;5133671;27;19931;-78
2022/07/28 12:24:27;;;;;;;;;;;;;;;28.10;50.92;98844.25;5144499;27;19934;-79
2022/07/28 12:26:56;;;;;;;;;;;;;;;30.01;47.77;98845.47;5146634;27;19931;-80
2022/07/28 12:29:28;;;;;;;;;;;;;;;30.88;46.23;98815.38;5120802;27;19928;-79
2022/07/28 12:32:03;;;;;;;;;;;;;;;31.58;44.74;98800.75;5142007;27;19934;-79
2022/07/28 12:34:31;;;;;;;;;;;;;;;31.92;44.15;98793.72;5134739;27;19927;-78
2022/07/28 12:37:26;;;;;;;;;;;;;;;31.80;44.91;98779.31;5135566;27;19927;-78
2022/07/28 12:39:53;;;;;;;;;;;;;;;30.41;46.24;98769.59;5113973;27;20416;-80
2022/07/28 12:42:45;;;;;;;;;;;;;;;29.26;48.42;98781.25;5099023;27;19996;-80
2022/07/28 12:45:17;;;;;;;;;;;;;;;28.31;50.66;98780.06;5119135;28;19927;-80
2022/07/28 12:47:44;;;;;;;;;;;;;;;27.51;51.21;98759.44;5096919;28;19973;-79
2022/07/28 12:50:15;;;;;;;;;;;;;;;26.73;54.23;98767.50;5131804;27;19934;-79
2022/07/28 12:52:44;;;;;;;;;;;;;;;25.90;55.80;98789.44;5112265;27;19927;-80
2022/07/28 12:55:22;;;;;;;;;;;;;;;25.56;56.04;98821.16;5120622;28;19927;-78
2022/07/28 12:57:54;;;;;;;;;;;;;;;25.07;57.65;98924.16;5134520;27;19939;-80
2022/07/28 13:00:23;;;;;;;;;;;;;;;22.83;71.03;99007.88;5121309;27;19927;-79
2022/07/28 13:02:59;;;;;;;;;;;;;;;20.60;82.20;98943.38;5124879;27;19944;-79
2022/07/28 13:06:01;;;;;;;;;;;;;;;19.67;89.67;98928.22;5147987;27;19934;-81
2022/07/28 13:08:20;;;;;;;;;;;;;;;19.49;94.57;98921.72;5144776;27;19931;-80